Savannah, Missouri
Current Conditions -  °F | °C
As of 10:53 AM on Friday 28 Nov 2014 (Local Time) from KSTJ Reporting Station
Clear Clear  
Wind Chill: 40°   Ceiling: Unl
Heat Index: 47°   Visibility: 10mi
Dew Point: 29°   Wind: 16mph
Humidity: 50%   Direction: 220°SW
Pressure: 29.92"   Gusts: NA
Location:  39.94°N, 94.83°W
Report Text: KSTJ 281653Z 22014KT 10SM CLR 08/M02 A2992 RMK AO2 SLP135 T00831017
Loading
Personal Weather Stations






























Interactive Weather Map New forecast layout! Learn more

10-Day Weather Forecast

Advertisements
Track Severe Weather on mobile